Time;durP1;ratioP1;P1;durP2;ratioP2;P2;SDS_P1;SDS_P2;PMS_P1;PMS_P2;Temp;Humidity;BMP_temperature;BMP_pressure;BME280_temperature;BME280_humidity;BME280_pressure;Samples;Min_cycle;Max_cycle;Signal;HPM_P1;HPM_P2
2022/10/07 00:01:04;;;;;;;5.85;2.42;;;;;;;9.24;75.65;102680.16;5012403;28;20022;-76
2022/10/07 00:03:30;;;;;;;6.85;2.42;;;;;;;9.21;75.81;102686.19;5012272;28;20029;-76
2022/10/07 00:06:04;;;;;;;10.48;3.20;;;;;;;9.16;75.94;102677.47;4998650;28;20058;-76
2022/10/07 00:08:30;;;;;;;7.30;2.97;;;;;;;9.13;76.03;102674.84;5010965;28;20026;-76
2022/10/07 00:10:55;;;;;;;6.28;3.00;;;;;;;9.10;76.06;102667.03;5012486;28;20025;-76
2022/10/07 00:13:21;;;;;;;8.18;2.75;;;;;;;9.08;76.31;102668.72;5011983;28;20029;-76
2022/10/07 00:15:46;;;;;;;9.07;3.08;;;;;;;9.03;76.31;102665.25;5024989;28;20033;-76
2022/10/07 00:18:11;;;;;;;5.55;2.45;;;;;;;9.01;76.45;102661.75;5009796;28;20034;-76
2022/10/07 00:20:38;;;;;;;8.32;2.83;;;;;;;8.98;76.74;102674.69;5012564;28;20037;-76
2022/10/07 00:23:03;;;;;;;9.98;2.50;;;;;;;8.94;76.96;102661.69;5010262;28;20516;-76
2022/10/07 00:25:29;;;;;;;5.35;2.53;;;;;;;8.92;77.09;102659.94;5012597;28;20174;-76
2022/10/07 00:27:54;;;;;;;7.95;2.50;;;;;;;8.89;76.99;102663.34;5011621;28;20100;-76
2022/10/07 00:30:20;;;;;;;8.23;2.40;;;;;;;8.88;77.05;102671.97;4994315;28;20190;-76
2022/10/07 00:32:45;;;;;;;8.23;2.30;;;;;;;8.87;76.96;102657.28;4994405;28;20032;-76
2022/10/07 00:35:10;;;;;;;7.50;2.60;;;;;;;8.86;77.13;102655.56;5010438;28;20413;-76
2022/10/07 00:37:41;;;;;;;9.18;2.65;;;;;;;8.86;77.32;102650.34;5011755;28;20021;-76
2022/10/07 00:40:08;;;;;;;7.32;2.65;;;;;;;8.84;77.45;102649.47;5009969;28;20024;-76
2022/10/07 00:42:34;;;;;;;7.45;2.78;;;;;;;8.79;77.71;102641.66;5012101;28;20060;-76
2022/10/07 00:44:59;;;;;;;6.45;2.50;;;;;;;8.79;77.85;102644.22;5011076;28;20113;-76
2022/10/07 00:47:30;;;;;;;6.32;2.55;;;;;;;8.76;78.08;102632.94;5013878;28;20109;-76
2022/10/07 00:50:03;;;;;;;8.70;2.38;;;;;;;8.74;77.64;102632.94;5012706;28;20033;-76
2022/10/07 00:52:36;;;;;;;9.68;2.50;;;;;;;8.70;78.14;102631.16;5012845;28;20026;-76
2022/10/07 00:55:06;;;;;;;6.10;2.40;;;;;;;8.68;78.26;102632.00;5011373;28;20392;-76
2022/10/07 00:57:32;;;;;;;10.80;2.35;;;;;;;8.67;77.79;102630.25;5012730;28;20099;-76
2022/10/07 00:59:59;;;;;;;7.43;2.22;;;;;;;8.64;78.05;102624.16;5011293;28;20037;-76
2022/10/07 01:02:26;;;;;;;7.53;2.45;;;;;;;8.64;78.71;102626.75;5012063;28;20109;-76
2022/10/07 01:04:53;;;;;;;7.35;2.47;;;;;;;8.63;78.42;102619.81;4994235;28;20030;-76
2022/10/07 01:07:20;;;;;;;7.53;2.65;;;;;;;8.63;78.54;102619.81;5012380;28;20049;-76
2022/10/07 01:09:49;;;;;;;9.13;2.90;;;;;;;8.62;78.40;102620.69;5011363;28;20030;-76
2022/10/07 01:12:21;;;;;;;9.27;2.75;;;;;;;8.61;78.49;102616.34;5014780;28;20022;-76
2022/10/07 01:14:52;;;;;;;9.05;3.22;;;;;;;8.59;78.95;102612.84;5015709;28;20034;-76
2022/10/07 01:17:35;;;;;;;9.73;3.17;;;;;;;8.59;78.70;102602.47;5011174;28;20026;-76
2022/10/07 01:20:20;;;;;;;10.15;2.85;;;;;;;8.58;78.73;102602.47;5007312;28;20044;-76
2022/10/07 01:23:14;;;;;;;9.32;3.03;;;;;;;8.57;78.43;102604.19;4997400;28;20034;-76
2022/10/07 01:25:54;;;;;;;6.63;2.85;;;;;;;8.54;78.76;102598.94;5013526;28;20156;-76
2022/10/07 01:28:29;;;;;;;9.30;2.72;;;;;;;8.51;78.93;102596.34;5014735;28;20197;-76
2022/10/07 01:30:59;;;;;;;11.40;3.05;;;;;;;8.48;79.21;102593.72;5013146;28;20478;-76
2022/10/07 01:33:29;;;;;;;10.95;3.00;;;;;;;8.45;79.21;102586.75;5012494;28;20037;-76
2022/10/07 01:35:59;;;;;;;7.22;2.78;;;;;;;8.43;79.33;102580.69;4996632;28;20088;-76
2022/10/07 01:38:25;;;;;;;9.23;2.97;;;;;;;8.43;79.50;102583.25;5012565;28;20026;-76
2022/10/07 01:41:03;;;;;;;6.93;2.65;;;;;;;8.42;79.52;102578.03;5012326;28;20030;-76
2022/10/07 01:43:31;;;;;;;8.75;2.70;;;;;;;8.42;79.61;102567.66;5014645;28;20025;-76
2022/10/07 01:45:57;;;;;;;8.65;2.78;;;;;;;8.38;79.95;102561.59;5011087;28;20046;-76
2022/10/07 01:48:22;;;;;;;11.45;2.92;;;;;;;8.37;80.19;102561.59;5014845;28;20036;-76
2022/10/07 01:50:50;;;;;;;8.13;3.33;;;;;;;8.34;79.94;102560.69;5014584;28;20030;-76
2022/10/07 01:53:48;;;;;;;6.13;2.58;;;;;;;8.34;80.22;102554.63;5013833;28;20033;-76
2022/10/07 01:56:32;;;;;;;9.93;2.72;;;;;;;8.33;79.90;102553.75;5013924;28;20481;-76
2022/10/07 01:59:28;;;;;;;8.07;2.60;;;;;;;8.31;80.34;102541.59;5011795;28;20025;-76
2022/10/07 02:02:23;;;;;;;11.18;2.40;;;;;;;8.28;79.68;102545.06;5009752;28;20033;-76
2022/10/07 02:05:31;;;;;;;8.73;2.85;;;;;;;8.28;79.83;102539.00;5003915;28;20117;-76
2022/10/07 02:08:21;;;;;;;13.80;3.47;;;;;;;8.28;79.98;102534.69;5005497;28;20044;-76
2022/10/07 02:11:09;;;;;;;8.73;3.13;;;;;;;8.26;80.38;102536.38;5012988;28;20113;-76
2022/10/07 02:13:42;;;;;;;7.25;2.40;;;;;;;8.27;80.21;102532.94;5013053;28;20041;-76
2022/10/07 02:16:26;;;;;;;7.90;2.88;;;;;;;8.26;80.61;102526.00;5013743;28;20088;-76
2022/10/07 02:18:52;;;;;;;7.13;2.85;;;;;;;8.24;80.58;102525.13;5001373;28;20034;-76
2022/10/07 02:21:23;;;;;;;8.75;2.80;;;;;;;8.25;80.79;102523.41;5014729;28;20060;-76
2022/10/07 02:23:49;;;;;;;6.07;2.65;;;;;;;8.22;80.31;102524.22;4995245;28;20396;-76
2022/10/07 02:26:20;;;;;;;9.80;2.95;;;;;;;8.22;80.70;102516.44;5013181;28;20068;-76
2022/10/07 02:28:49;;;;;;;5.82;2.47;;;;;;;8.20;80.73;102520.75;5012564;28;20018;-76
2022/10/07 02:31:16;;;;;;;6.47;2.28;;;;;;;8.20;80.31;102515.56;5013875;28;20101;-75
2022/10/07 02:33:45;;;;;;;6.10;2.45;;;;;;;8.18;80.53;102507.78;5014438;28;20428;-76
2022/10/07 02:36:16;;;;;;;8.15;2.58;;;;;;;8.18;80.50;102509.50;5009076;28;20441;-76
2022/10/07 02:38:42;;;;;;;8.98;2.55;;;;;;;8.18;80.75;102506.91;5011557;28;20104;-76
2022/10/07 02:41:32;;;;;;;7.43;2.63;;;;;;;8.19;80.07;102503.47;5012556;28;20171;-76
2022/10/07 02:44:07;;;;;;;10.57;2.45;;;;;;;8.15;80.48;102497.38;5011929;28;20025;-76
2022/10/07 02:46:50;;;;;;;6.75;2.50;;;;;;;8.14;80.33;102498.22;5011561;28;20060;-76
2022/10/07 02:49:19;;;;;;;7.18;2.60;;;;;;;8.11;80.55;102493.03;5010616;28;20033;-76
2022/10/07 02:51:53;;;;;;;7.90;2.47;;;;;;;8.09;80.54;102494.72;5012738;28;20033;-76
2022/10/07 02:54:26;;;;;;;7.18;2.70;;;;;;;8.10;80.52;102487.81;4994883;28;20026;-76
2022/10/07 02:56:52;;;;;;;7.03;2.70;;;;;;;8.10;80.58;102487.81;5014543;28;20032;-76
2022/10/07 02:59:19;;;;;;;10.18;2.88;;;;;;;8.11;80.79;102489.53;5014382;28;20044;-76
2022/10/07 03:01:49;;;;;;;7.85;2.63;;;;;;;8.09;80.71;102483.47;5013967;28;20026;-76
2022/10/07 03:04:15;;;;;;;9.80;2.63;;;;;;;8.08;80.59;102479.13;5014254;28;20029;-76
2022/10/07 03:06:41;;;;;;;7.20;2.70;;;;;;;8.07;80.50;102482.56;5013920;28;20393;-76
2022/10/07 03:09:07;;;;;;;9.40;2.63;;;;;;;8.06;80.43;102476.53;5013349;28;20026;-76
2022/10/07 03:11:35;;;;;;;6.85;2.28;;;;;;;8.04;80.58;102470.47;5014450;28;20030;-76
2022/10/07 03:14:00;;;;;;;9.30;2.67;;;;;;;8.00;81.05;102472.16;5014241;28;20033;-76
2022/10/07 03:16:25;;;;;;;8.95;2.58;;;;;;;7.99;80.75;102475.59;5012670;28;20030;-76
2022/10/07 03:18:51;;;;;;;9.25;2.65;;;;;;;7.99;80.61;102474.72;5013722;28;20026;-76
2022/10/07 03:21:16;;;;;;;6.32;2.40;;;;;;;7.98;80.64;102463.50;5010615;28;20021;-76
2022/10/07 03:23:42;;;;;;;9.88;2.50;;;;;;;7.96;80.95;102460.00;5013671;28;20493;-76
2022/10/07 03:26:07;;;;;;;4.80;2.33;;;;;;;7.95;80.63;102455.69;5010104;28;20022;-76
2022/10/07 03:28:36;;;;;;;6.50;2.15;;;;;;;7.96;81.00;102453.94;5013643;28;20033;-76
2022/10/07 03:31:10;;;;;;;11.57;2.45;;;;;;;7.94;81.10;102456.53;4993637;28;20026;-76
2022/10/07 03:33:36;;;;;;;7.78;2.30;;;;;;;7.94;80.96;102448.75;5012374;28;20013;-76
2022/10/07 03:36:02;;;;;;;7.72;2.60;;;;;;;7.91;81.16;102446.13;5011548;28;20045;-76
2022/10/07 03:38:27;;;;;;;9.13;2.53;;;;;;;7.91;81.55;102448.72;5013699;28;20044;-76
2022/10/07 03:40:53;;;;;;;9.93;2.30;;;;;;;7.91;81.44;102440.94;5011533;28;20485;-76
2022/10/07 03:43:18;;;;;;;6.22;2.08;;;;;;;7.91;81.11;102435.75;5011396;28;20032;-76
2022/10/07 03:45:47;;;;;;;9.45;2.25;;;;;;;7.89;81.32;102437.47;5010992;28;20041;-76
2022/10/07 03:48:13;;;;;;;7.60;2.20;;;;;;;7.86;80.86;102437.41;5015658;28;20083;-76
2022/10/07 03:50:38;;;;;;;7.82;2.28;;;;;;;7.85;81.04;102425.34;5015759;28;20030;-76
2022/10/07 03:53:03;;;;;;;6.80;2.20;;;;;;;7.84;81.33;102428.78;5012444;28;20496;-76
2022/10/07 03:55:29;;;;;;;9.10;2.75;;;;;;;7.83;80.99;102434.81;5010770;28;20048;-76
2022/10/07 03:57:56;;;;;;;6.43;2.35;;;;;;;7.80;81.23;102427.88;5011190;28;20398;-76
2022/10/07 04:00:23;;;;;;;9.80;2.17;;;;;;;7.79;81.34;102431.31;5012503;28;20022;-76
2022/10/07 04:02:49;;;;;;;8.70;2.20;;;;;;;7.75;81.50;102430.41;5010884;28;20029;-76
2022/10/07 04:05:16;;;;;;;8.05;2.38;;;;;;;7.74;81.78;102427.81;5012985;28;20112;-76
2022/10/07 04:07:46;;;;;;;4.47;2.08;;;;;;;7.74;81.62;102428.66;5012463;28;20022;-76
2022/10/07 04:10:14;;;;;;;6.93;2.30;;;;;;;7.73;81.46;102426.91;5011522;28;20108;-76
2022/10/07 04:12:40;;;;;;;5.95;2.15;;;;;;;7.73;81.69;102431.25;5012580;28;20025;-76
2022/10/07 04:15:06;;;;;;;9.63;2.60;;;;;;;7.72;81.59;102430.38;5012618;28;20028;-76
2022/10/07 04:17:31;;;;;;;8.48;2.20;;;;;;;7.72;81.65;102425.19;5012621;28;20026;-76
2022/10/07 04:19:57;;;;;;;7.93;2.25;;;;;;;7.71;81.69;102422.59;5012203;28;20033;-76
2022/10/07 04:22:23;;;;;;;6.55;2.28;;;;;;;7.70;81.29;102421.69;5011121;28;20037;-76
2022/10/07 04:25:32;;;;;;;7.03;2.20;;;;;;;7.69;81.25;102429.47;5012419;28;20485;-76
2022/10/07 04:27:35;;;;;;;6.78;2.35;;;;;;;7.68;81.43;102417.38;5010086;28;20029;-76
2022/10/07 04:30:01;;;;;;;6.03;2.20;;;;;;;7.66;81.91;102421.66;5012484;28;20022;-76
2022/10/07 04:32:26;;;;;;;4.53;1.92;;;;;;;7.65;81.96;102423.38;5010828;28;20026;-75
2022/10/07 04:34:51;;;;;;;6.05;1.95;;;;;;;7.65;82.01;102418.22;5011178;28;20018;-76
2022/10/07 04:37:17;;;;;;;8.80;2.03;;;;;;;7.65;81.76;102420.81;5011305;28;20026;-76
2022/10/07 04:39:43;;;;;;;6.88;2.22;;;;;;;7.63;81.79;102419.91;5011912;28;20040;-77
2022/10/07 04:43:17;;;;;;;7.45;2.05;;;;;;;7.61;81.67;102411.25;5010077;28;20025;-76
2022/10/07 04:44:54;;;;;;;6.00;2.00;;;;;;;7.60;81.72;102419.88;4998904;28;20065;-76
2022/10/07 04:47:19;;;;;;;8.23;2.30;;;;;;;7.58;81.86;102416.38;5010785;28;20072;-76
2022/10/07 04:49:44;;;;;;;9.40;2.00;;;;;;;7.57;81.63;102412.06;5009835;28;20378;-76
2022/10/07 04:52:09;;;;;;;6.13;1.90;;;;;;;7.56;82.06;102413.78;5011272;28;20061;-75
2022/10/07 04:54:35;;;;;;;7.47;2.20;;;;;;;7.56;81.97;102413.78;5009874;28;20119;-75
2022/10/07 04:57:00;;;;;;;8.07;2.15;;;;;;;7.57;81.80;102417.22;5012492;28;20061;-76
2022/10/07 04:59:25;;;;;;;5.45;1.95;;;;;;;7.56;81.53;102412.91;5008844;28;20055;-75
2022/10/07 05:01:50;;;;;;;8.18;2.20;;;;;;;7.55;81.77;102416.34;5008704;28;20108;-75
2022/10/07 05:04:16;;;;;;;6.13;1.98;;;;;;;7.52;81.76;102412.00;5011667;28;20026;-75
2022/10/07 05:06:41;;;;;;;7.88;2.25;;;;;;;7.52;81.78;102406.81;5012289;28;20034;-75
2022/10/07 05:09:06;;;;;;;6.47;1.77;;;;;;;7.53;81.68;102407.69;5011802;28;20069;-75
2022/10/07 05:11:32;;;;;;;9.38;2.10;;;;;;;7.52;81.66;102400.75;5011101;28;20401;-76
2022/10/07 05:13:57;;;;;;;5.97;2.03;;;;;;;7.52;81.99;102406.81;5012234;28;20040;-76
2022/10/07 05:16:22;;;;;;;4.93;1.92;;;;;;;7.50;81.48;102399.91;5011269;28;20030;-76
2022/10/07 05:18:48;;;;;;;5.55;2.05;;;;;;;7.50;81.85;102395.56;5011999;28;20429;-76
2022/10/07 05:21:13;;;;;;;6.25;2.22;;;;;;;7.50;81.43;102399.91;5011949;28;20030;-76
2022/10/07 05:23:38;;;;;;;7.03;1.83;;;;;;;7.48;81.26;102394.69;5012528;28;20034;-76
2022/10/07 05:26:09;;;;;;;5.90;2.03;;;;;;;7.46;81.38;102388.59;5011512;28;20041;-76
2022/10/07 05:28:36;;;;;;;5.78;1.98;;;;;;;7.41;81.51;102391.16;5012335;28;20026;-76
2022/10/07 05:31:05;;;;;;;6.53;2.03;;;;;;;7.41;81.88;102387.69;5011432;28;20056;-76
2022/10/07 05:33:31;;;;;;;7.47;2.00;;;;;;;7.40;81.88;102378.19;5007504;28;20105;-75
2022/10/07 05:35:58;;;;;;;7.57;2.15;;;;;;;7.38;81.88;102380.75;5011220;28;20030;-76
2022/10/07 05:38:23;;;;;;;7.80;2.28;;;;;;;7.36;82.08;102374.69;5009635;28;20053;-75
2022/10/07 05:40:58;;;;;;;8.32;2.42;;;;;;;7.35;81.97;102382.44;5010967;28;20458;-75
2022/10/07 05:43:25;;;;;;;7.43;2.55;;;;;;;7.32;81.98;102378.09;5010199;28;20065;-76
2022/10/07 05:45:59;;;;;;;7.95;2.40;;;;;;;7.32;82.32;102378.09;5001818;28;20046;-76
2022/10/07 05:48:26;;;;;;;6.53;2.20;;;;;;;7.31;82.06;102378.06;5000583;28;20129;-76
2022/10/07 05:50:51;;;;;;;8.27;2.20;;;;;;;7.31;82.18;102371.19;4992568;28;20040;-76
2022/10/07 05:53:16;;;;;;;9.32;2.40;;;;;;;7.33;82.16;102378.97;4999704;28;20033;-75
2022/10/07 05:55:42;;;;;;;6.50;1.90;;;;;;;7.32;82.02;102372.94;4993610;28;20029;-76
2022/10/07 05:58:07;;;;;;;5.30;1.88;;;;;;;7.32;82.12;102378.09;4988086;28;20378;-75
2022/10/07 06:00:34;;;;;;;7.60;2.00;;;;;;;7.32;82.32;102366.84;5008280;28;20053;-76
2022/10/07 06:03:01;;;;;;;7.38;2.08;;;;;;;7.32;82.48;102372.94;4992546;28;20186;-76
2022/10/07 06:05:28;;;;;;;7.15;2.10;;;;;;;7.33;82.60;102366.00;5009659;28;20076;-76
2022/10/07 06:07:53;;;;;;;5.47;1.85;;;;;;;7.33;82.63;102363.41;4999190;28;20030;-76
2022/10/07 06:13:08;;;;;;;5.90;1.77;;;;;;;7.35;82.91;102357.41;5001229;28;20073;-75
2022/10/07 06:15:36;;;;;;;8.48;2.00;;;;;;;7.36;82.80;102355.69;4987096;28;20473;-75
2022/10/07 06:18:03;;;;;;;8.60;1.77;;;;;;;7.37;83.30;102355.69;5012741;28;20026;-75
2022/10/07 06:20:28;;;;;;;9.63;2.03;;;;;;;7.39;83.30;102354.00;5007786;28;20320;-76
2022/10/07 06:22:54;;;;;;;7.40;2.00;;;;;;;7.43;83.10;102354.91;5013058;28;20204;-75
2022/10/07 06:25:20;;;;;;;6.97;2.40;;;;;;;7.46;83.48;102360.13;5013986;28;20105;-75
2022/10/07 06:27:45;;;;;;;7.63;2.20;;;;;;;7.48;83.43;102357.56;4996561;28;20064;-76
2022/10/07 06:30:11;;;;;;;11.02;2.08;;;;;;;7.51;83.49;102362.78;4994894;28;20022;-75
2022/10/07 06:32:37;;;;;;;9.45;2.10;;;;;;;7.54;83.28;102357.63;5012693;28;20377;-76
2022/10/07 06:35:02;;;;;;;10.02;2.10;;;;;;;7.58;83.34;102357.69;5011793;28;20469;-76
2022/10/07 06:37:31;;;;;;;6.20;1.90;;;;;;;7.63;83.42;102357.75;5010249;28;20041;-76
2022/10/07 06:39:56;;;;;;;6.68;1.60;;;;;;;7.66;83.41;102357.78;5010463;28;20143;-76
2022/10/07 06:42:21;;;;;;;11.40;1.80;;;;;;;7.69;83.62;102352.59;4997219;28;20124;-76
2022/10/07 06:44:47;;;;;;;10.40;1.90;;;;;;;7.72;83.26;102363.00;4996637;28;20156;-76
2022/10/07 06:47:12;;;;;;;7.60;1.80;;;;;;;7.79;83.41;102363.94;5011501;28;20417;-76
2022/10/07 06:49:37;;;;;;;9.13;1.90;;;;;;;7.83;83.23;102349.31;5013893;28;20045;-76
2022/10/07 06:52:03;;;;;;;9.30;1.80;;;;;;;7.87;83.15;102346.75;5014375;28;20388;-75
2022/10/07 06:54:28;;;;;;;5.40;1.73;;;;;;;7.92;83.32;102358.91;5014001;28;20030;-76
2022/10/07 06:56:53;;;;;;;8.73;1.80;;;;;;;7.96;83.23;102361.53;5013243;28;20053;-76
2022/10/07 06:59:19;;;;;;;4.65;1.70;;;;;;;8.01;83.31;102359.88;5014316;28;20036;-76
2022/10/07 07:01:44;;;;;;;5.95;1.80;;;;;;;8.05;83.18;102361.59;5012595;28;20021;-75
2022/10/07 07:04:09;;;;;;;8.32;1.80;;;;;;;8.09;82.94;102362.53;5012071;28;20470;-75
2022/10/07 07:06:35;;;;;;;6.88;1.77;;;;;;;8.14;83.19;102370.34;5007609;28;20034;-75
2022/10/07 07:09:04;;;;;;;7.70;1.92;;;;;;;8.18;82.86;102361.75;5004593;28;20030;-76
2022/10/07 07:11:35;;;;;;;7.93;1.70;;;;;;;8.23;83.01;102359.19;5005892;28;20164;-75
2022/10/07 07:14:02;;;;;;;;;;;;;;;8.30;82.20;102361.84;5005794;28;20108;-76
2022/10/07 07:16:28;;;;;;;6.47;1.90;;;;;;;8.31;82.53;102358.38;5003378;28;19944;-76
2022/10/07 07:18:57;;;;;;;4.70;1.70;;;;;;;8.38;82.65;102364.50;5008003;28;20029;-76
2022/10/07 07:21:24;;;;;;;7.18;1.70;;;;;;;8.41;82.83;102366.22;5006547;28;20042;-76
2022/10/07 07:23:52;;;;;;;7.00;1.92;;;;;;;8.47;83.00;102363.69;5003688;28;20030;-76
2022/10/07 07:26:19;;;;;;;5.80;1.77;;;;;;;8.52;82.97;102361.16;5006466;28;20037;-76
2022/10/07 07:28:50;;;;;;;8.38;1.80;;;;;;;8.57;82.66;102365.53;5007275;28;20217;-75
2022/10/07 07:31:16;;;;;;;5.22;1.75;;;;;;;8.62;82.90;102369.03;5005313;28;20524;-76
2022/10/07 07:33:41;;;;;;;8.30;1.92;;;;;;;8.65;83.04;102353.47;5007596;28;20022;-75
2022/10/07 07:36:15;;;;;;;5.05;1.70;;;;;;;8.70;83.04;102365.63;5006311;28;20489;-75
2022/10/07 07:38:41;;;;;;;6.47;1.80;;;;;;;8.76;82.88;102360.47;5006692;28;20040;-75
2022/10/07 07:41:07;;;;;;;9.02;2.03;;;;;;;8.82;83.27;102363.09;4988056;28;20030;-75
2022/10/07 07:43:32;;;;;;;8.80;2.17;;;;;;;8.90;82.72;102363.16;5007354;28;20026;-75
2022/10/07 07:45:58;;;;;;;9.00;1.95;;;;;;;8.96;82.78;102356.25;5006759;28;20462;-75
2022/10/07 07:48:23;;;;;;;7.63;1.88;;;;;;;9.01;82.51;102356.28;5005283;28;20033;-76
2022/10/07 07:50:48;;;;;;;7.50;1.95;;;;;;;9.08;82.38;102349.38;5005054;28;20084;-76
2022/10/07 07:53:13;;;;;;;5.95;1.67;;;;;;;9.14;82.42;102340.78;5003070;28;20420;-76
2022/10/07 07:55:39;;;;;;;7.18;2.10;;;;;;;9.20;82.18;102348.59;5004730;28;20072;-76
2022/10/07 07:58:04;;;;;;;7.00;2.10;;;;;;;9.29;81.99;102350.34;5007652;28;20676;-76
2022/10/07 08:00:31;;;;;;;8.88;1.65;;;;;;;9.37;81.71;102351.25;5006458;28;20029;-75
2022/10/07 08:02:57;;;;;;;8.75;1.75;;;;;;;9.43;81.82;102359.06;5003908;28;20228;-75
2022/10/07 08:05:22;;;;;;;9.85;2.10;;;;;;;9.50;81.64;102350.44;5005573;28;20034;-75
2022/10/07 08:07:47;;;;;;;5.85;1.92;;;;;;;9.59;81.89;102346.13;5006404;28;20433;-76
2022/10/07 08:10:12;;;;;;;8.13;2.03;;;;;;;9.63;80.95;102345.25;5007821;28;20029;-75
2022/10/07 08:12:38;;;;;;;8.07;2.15;;;;;;;9.69;81.12;102346.13;5008363;28;20032;-76
2022/10/07 08:15:03;;;;;;;8.98;1.80;;;;;;;9.76;81.15;102344.41;5006800;28;20432;-76
2022/10/07 08:17:29;;;;;;;8.63;2.08;;;;;;;9.83;80.48;102334.91;5006476;28;20061;-75
2022/10/07 08:19:55;;;;;;;4.90;1.70;;;;;;;9.91;80.88;102334.91;5007344;28;20473;-76
2022/10/07 08:22:20;;;;;;;8.43;1.90;;;;;;;9.98;80.51;102334.06;5007648;28;20557;-76
2022/10/07 08:24:46;;;;;;;8.70;1.90;;;;;;;10.05;80.94;102338.41;5007348;28;20073;-76
2022/10/07 08:27:11;;;;;;;5.35;1.60;;;;;;;10.12;80.35;102339.28;5007174;28;20073;-76
2022/10/07 08:29:37;;;;;;;9.82;1.90;;;;;;;10.21;80.43;102335.81;5007254;28;20437;-76
2022/10/07 08:32:02;;;;;;;9.57;2.22;;;;;;;10.26;80.04;102331.44;5006825;28;20021;-76
2022/10/07 08:34:27;;;;;;;8.27;1.95;;;;;;;10.33;79.71;102328.84;5007346;28;20068;-76
2022/10/07 08:36:54;;;;;;;7.95;1.88;;;;;;;10.42;80.05;102325.41;5007087;28;20026;-76
2022/10/07 08:39:20;;;;;;;7.57;1.63;;;;;;;10.52;80.00;102333.22;5007011;28;20469;-76
2022/10/07 08:42:12;;;;;;;7.18;1.50;;;;;;;10.63;80.18;102323.63;5004795;28;20091;-76
2022/10/07 08:44:40;;;;;;;8.32;1.60;;;;;;;10.77;78.56;102332.28;4978537;28;20164;-75
2022/10/07 08:47:11;;;;;;;7.97;1.70;;;;;;;10.94;78.53;102326.16;5006787;28;20631;-76
2022/10/07 08:50:06;;;;;;;9.48;1.77;;;;;;;11.10;78.86;102315.72;5006994;28;20030;-76
2022/10/07 08:52:40;;;;;;;7.57;1.88;;;;;;;11.24;78.12;102313.91;5003284;28;20083;-75
2022/10/07 08:55:21;;;;;;;6.88;1.52;;;;;;;11.32;77.14;102312.09;5006757;28;20075;-75
2022/10/07 08:58:18;;;;;;;7.70;1.70;;;;;;;11.37;77.17;102299.94;5005831;28;20030;-76
2022/10/07 09:00:57;;;;;;;7.90;1.80;;;;;;;11.46;76.38;102298.13;5005947;28;20367;-76
2022/10/07 09:03:50;;;;;;;10.23;1.73;;;;;;;11.52;76.29;102292.91;5006068;28;20030;-75
2022/10/07 09:06:26;;;;;;;7.25;1.60;;;;;;;11.57;75.34;102296.34;5003553;28;20136;-76
2022/10/07 09:08:58;;;;;;;8.45;1.55;;;;;;;11.58;74.60;102297.19;4986756;28;20497;-76
2022/10/07 09:11:25;;;;;;;10.73;1.85;;;;;;;11.63;74.56;102295.44;5005111;28;20520;-75
2022/10/07 09:14:07;;;;;;;9.18;1.67;;;;;;;11.66;74.91;102291.06;5005918;28;20501;-75
2022/10/07 09:16:42;;;;;;;6.82;1.48;;;;;;;11.68;74.78;102288.47;5006365;28;20030;-76
2022/10/07 09:19:15;;;;;;;7.22;1.30;;;;;;;11.71;74.93;102292.78;5005495;28;20034;-76
2022/10/07 09:21:50;;;;;;;8.00;1.60;;;;;;;11.74;74.39;102291.00;5006261;28;20493;-76
2022/10/07 09:24:18;;;;;;;8.05;1.50;;;;;;;11.79;74.84;102288.34;5006221;28;20057;-76
2022/10/07 09:26:43;;;;;;;6.40;1.52;;;;;;;11.86;73.91;102286.59;5005734;28;20025;-76
2022/10/07 09:29:09;;;;;;;10.35;1.67;;;;;;;11.93;74.23;102280.44;5004278;28;20034;-76
2022/10/07 09:31:35;;;;;;;5.95;1.70;;;;;;;11.99;74.06;102273.44;4988844;28;20025;-75
2022/10/07 09:34:00;;;;;;;12.40;1.65;;;;;;;12.04;73.89;102277.78;5009580;28;20088;-75
2022/10/07 09:36:25;;;;;;;7.28;1.85;;;;;;;12.10;74.27;102275.97;5010255;28;20033;-75
2022/10/07 09:38:52;;;;;;;9.70;1.77;;;;;;;12.18;74.64;102275.03;5009693;28;20072;-76
2022/10/07 09:41:37;;;;;;;8.75;1.98;;;;;;;12.25;74.88;102274.97;4992368;28;20030;-76
2022/10/07 09:44:14;;;;;;;7.13;1.63;;;;;;;12.32;73.30;102269.66;5006271;28;20052;-76
2022/10/07 09:46:40;;;;;;;4.95;1.40;;;;;;;12.34;73.45;102263.56;5008090;28;20049;-76
2022/10/07 09:49:06;;;;;;;7.85;1.33;;;;;;;12.36;73.47;102267.03;5010741;28;20057;-76
2022/10/07 09:51:34;;;;;;;8.23;1.50;;;;;;;12.40;72.90;102262.66;5010578;28;20099;-76
2022/10/07 09:54:02;;;;;;;7.72;1.60;;;;;;;12.47;73.17;102255.59;5008961;28;20030;-77
2022/10/07 09:56:33;;;;;;;9.73;1.55;;;;;;;12.53;72.92;102252.94;5009667;28;20048;-76
2022/10/07 09:59:31;;;;;;;7.73;1.50;;;;;;;12.56;72.97;102243.31;5009842;28;20030;-77
2022/10/07 10:01:58;;;;;;;7.35;1.30;;;;;;;12.59;73.75;102248.50;5006257;28;20296;-76
2022/10/07 10:04:51;;;;;;;4.53;1.05;;;;;;;12.67;72.79;102244.94;5008681;28;20033;-76
2022/10/07 10:07:32;;;;;;;7.05;1.63;;;;;;;12.73;71.89;102245.72;5001201;28;20477;-76
2022/10/07 10:10:15;;;;;;;7.28;1.45;;;;;;;12.82;72.22;102234.28;5006535;28;20107;-76
2022/10/07 10:12:46;;;;;;;10.60;1.50;;;;;;;12.93;71.19;102230.69;5009103;28;20029;-76
2022/10/07 10:15:44;;;;;;;7.47;1.42;;;;;;;13.01;71.52;102237.53;5009559;28;20032;-75
2022/10/07 10:18:34;;;;;;;7.85;1.55;;;;;;;13.08;71.36;102219.16;5009540;28;20503;-75
2022/10/07 10:21:14;;;;;;;6.65;1.42;;;;;;;13.13;69.72;102220.84;5008367;28;20041;-76
2022/10/07 10:23:45;;;;;;;6.60;1.42;;;;;;;13.20;69.33;102216.38;5009527;28;20045;-76
2022/10/07 10:26:24;;;;;;;8.43;1.40;;;;;;;13.27;69.29;102215.38;5009441;28;20041;-76
2022/10/07 10:29:07;;;;;;;6.95;1.35;;;;;;;13.35;68.94;102213.53;5008415;28;20038;-76
2022/10/07 10:31:55;;;;;;;8.50;1.08;;;;;;;13.42;68.95;102196.03;4990865;28;20393;-76
2022/10/07 10:34:47;;;;;;;5.60;1.20;;;;;;;13.50;68.48;102196.75;5008142;28;20144;-76
2022/10/07 10:37:44;;;;;;;9.45;1.50;;;;;;;13.55;67.75;102195.84;5005975;28;20535;-76
2022/10/07 10:40:21;;;;;;;7.70;1.20;;;;;;;13.55;66.37;102194.09;5009155;28;20691;-75
2022/10/07 10:42:59;;;;;;;7.05;1.20;;;;;;;13.64;67.97;102190.47;5008217;28;20044;-76
2022/10/07 10:45:41;;;;;;;7.88;1.27;;;;;;;13.71;66.75;102189.44;5006487;28;20076;-76
2022/10/07 10:48:27;;;;;;;9.98;1.45;;;;;;;13.81;66.59;102184.94;5008049;28;20052;-76
2022/10/07 10:51:20;;;;;;;8.77;1.42;;;;;;;13.90;66.01;102178.66;5008913;28;20048;-76
2022/10/07 10:54:09;;;;;;;5.95;1.20;;;;;;;13.96;66.25;102175.94;5008985;28;20029;-76
2022/10/07 10:57:08;;;;;;;6.53;1.42;;;;;;;14.02;65.22;102162.72;5008043;28;20036;-76
2022/10/07 11:00:16;;;;;;;6.10;1.40;;;;;;;14.06;65.08;102167.03;4986158;28;20034;-76
2022/10/07 11:03:24;;;;;;;6.53;1.13;;;;;;;14.06;64.87;102164.41;5008782;28;20109;-76
2022/10/07 11:05:51;;;;;;;6.00;1.30;;;;;;;14.10;64.10;102159.97;5008269;28;20245;-76
2022/10/07 11:08:21;;;;;;;5.80;1.00;;;;;;;14.16;63.64;102159.00;4989899;28;20531;-76
2022/10/07 11:11:00;;;;;;;6.45;1.10;;;;;;;14.20;64.06;102151.06;5007995;28;20048;-76
2022/10/07 11:13:34;;;;;;;5.07;0.90;;;;;;;14.23;64.05;102155.34;5008473;28;20170;-75
2022/10/07 11:16:16;;;;;;;5.82;0.90;;;;;;;14.27;62.60;102151.78;5008116;28;20038;-75
2022/10/07 11:18:41;;;;;;;;;;;;;;;14.30;65.46;102145.63;4989764;28;20389;-75
2022/10/07 11:21:13;;;;;;;5.22;1.05;;;;;;;14.31;63.41;102145.59;5007465;28;19921;-75
2022/10/07 11:24:09;;;;;;;7.32;1.40;;;;;;;14.36;62.49;102135.88;5008497;28;20057;-75
2022/10/07 11:26:46;;;;;;;9.07;1.35;;;;;;;14.42;62.61;102129.69;5007104;28;20030;-76
2022/10/07 11:29:31;;;;;;;5.05;1.27;;;;;;;14.48;62.80;102123.44;4990594;28;20381;-76
2022/10/07 11:32:05;;;;;;;4.60;1.05;;;;;;;14.52;61.93;102123.34;5006768;28;20468;-76
2022/10/07 11:34:48;;;;;;;7.25;1.30;;;;;;;14.60;61.65;102111.84;5006164;28;20449;-76
2022/10/07 11:37:48;;;;;;;6.88;1.10;;;;;;;14.61;61.92;102101.31;5008126;28;20060;-76
2022/10/07 11:40:15;;;;;;;6.13;1.10;;;;;;;14.64;61.05;102096.03;4974456;28;20052;-76
2022/10/07 11:42:44;;;;;;;6.25;1.08;;;;;;;14.68;60.49;102089.84;5001817;28;20034;-76
2022/10/07 11:45:22;;;;;;;7.28;1.13;;;;;;;14.75;61.26;102082.72;4984744;28;20092;-76
2022/10/07 11:47:54;;;;;;;9.68;1.30;;;;;;;14.79;60.52;102075.63;5000603;28;20041;-76
2022/10/07 11:50:25;;;;;;;7.65;1.40;;;;;;;14.86;59.26;102074.56;5002410;28;20476;-76
2022/10/07 11:52:54;;;;;;;5.73;1.40;;;;;;;14.91;58.86;102075.34;5002483;28;20030;-76